createdAt,value
2023-12-13T00:01:18.928Z,7.59
2023-12-13T00:03:45.522Z,7.57
2023-12-13T00:06:12.048Z,7.63
2023-12-13T00:08:39.610Z,7.69
2023-12-13T00:11:07.176Z,7.66
2023-12-13T00:13:34.776Z,7.69
2023-12-13T00:16:02.352Z,7.77
2023-12-13T00:18:29.990Z,7.83
2023-12-13T00:20:57.531Z,7.90
2023-12-13T00:23:25.161Z,8.02
2023-12-13T00:25:53.892Z,8.12
2023-12-13T00:28:21.406Z,8.24
2023-12-13T00:30:48.362Z,8.30
2023-12-13T00:33:14.956Z,8.38
2023-12-13T00:35:41.660Z,8.49
2023-12-13T00:38:08.753Z,8.55
2023-12-13T00:40:36.367Z,8.63
2023-12-13T00:43:03.932Z,8.69
2023-12-13T00:45:30.461Z,8.78
2023-12-13T00:47:57.131Z,8.82
2023-12-13T00:50:24.727Z,8.86
2023-12-13T00:52:52.352Z,8.92
2023-12-13T00:55:18.962Z,8.90
2023-12-13T00:57:45.555Z,8.95
2023-12-13T01:00:13.097Z,8.98
2023-12-13T01:02:39.782Z,8.96
2023-12-13T01:05:07.294Z,9.00
2023-12-13T01:07:34.403Z,9.04
2023-12-13T01:10:01.115Z,9.12
2023-12-13T01:12:27.666Z,9.17
2023-12-13T01:14:54.654Z,9.18
2023-12-13T01:17:22.256Z,9.11
2023-12-13T01:19:48.916Z,8.99
2023-12-13T01:22:16.458Z,8.91
2023-12-13T01:24:44.034Z,8.87
2023-12-13T01:27:11.640Z,8.88
2023-12-13T01:29:39.248Z,8.81
2023-12-13T01:32:06.825Z,8.76
2023-12-13T01:34:34.520Z,8.72
2023-12-13T01:37:02.066Z,8.65
2023-12-13T01:39:29.607Z,8.57
2023-12-13T01:41:57.207Z,8.52
2023-12-13T01:44:23.804Z,8.46
2023-12-13T01:46:50.456Z,8.27
2023-12-13T01:49:18.113Z,8.05
2023-12-13T01:51:45.602Z,7.88
2023-12-13T01:54:12.254Z,7.73
2023-12-13T01:56:39.802Z,7.53
2023-12-13T01:59:07.500Z,7.36
2023-12-13T02:01:35.077Z,7.34
2023-12-13T02:04:02.583Z,7.41
2023-12-13T02:06:29.103Z,7.50
2023-12-13T02:08:55.648Z,7.56
2023-12-13T02:11:24.545Z,7.66
2023-12-13T02:13:52.978Z,7.70
2023-12-13T02:16:20.574Z,7.70
2023-12-13T02:18:48.232Z,7.67
2023-12-13T02:21:15.759Z,7.66
2023-12-13T02:23:43.307Z,7.69
2023-12-13T02:26:10.918Z,7.70
2023-12-13T02:28:37.479Z,7.72
2023-12-13T02:31:03.975Z,7.74
2023-12-13T02:33:30.797Z,7.77
2023-12-13T02:35:58.266Z,7.82
2023-12-13T02:38:25.967Z,7.86
2023-12-13T02:40:53.526Z,7.88
2023-12-13T02:43:21.048Z,7.90
2023-12-13T02:45:49.717Z,7.93
2023-12-13T02:48:17.366Z,7.94
2023-12-13T02:50:44.828Z,7.95
2023-12-13T02:53:11.334Z,7.84
2023-12-13T02:55:37.854Z,7.84
2023-12-13T02:58:04.628Z,7.86
2023-12-13T03:00:31.293Z,7.88
2023-12-13T03:02:58.261Z,7.90
2023-12-13T03:05:26.523Z,7.92
2023-12-13T03:07:54.205Z,7.88
2023-12-13T03:10:21.703Z,7.88
2023-12-13T03:12:49.243Z,7.87
2023-12-13T03:15:17.845Z,7.76
2023-12-13T03:17:45.496Z,7.74
2023-12-13T03:20:13.008Z,7.75
2023-12-13T03:22:40.636Z,7.79
2023-12-13T03:25:09.265Z,7.79
2023-12-13T03:27:36.450Z,7.80
2023-12-13T03:30:03.302Z,7.80
2023-12-13T03:32:29.822Z,7.83
2023-12-13T03:34:56.695Z,7.86
2023-12-13T03:37:24.242Z,7.91
2023-12-13T03:39:51.787Z,7.95
2023-12-13T03:42:18.421Z,7.99
2023-12-13T03:44:44.958Z,8.03
2023-12-13T03:47:11.577Z,8.04
2023-12-13T03:49:39.231Z,8.07
2023-12-13T03:52:06.744Z,8.08
2023-12-13T03:54:33.649Z,8.12
2023-12-13T03:57:00.183Z,8.13
2023-12-13T03:59:26.678Z,8.16
2023-12-13T04:01:54.152Z,8.21
2023-12-13T04:04:21.836Z,8.25
2023-12-13T04:06:49.265Z,8.28
2023-12-13T04:09:15.760Z,8.31
2023-12-13T04:11:42.441Z,8.34
2023-12-13T04:14:10.046Z,8.33
2023-12-13T04:16:37.694Z,8.38
2023-12-13T04:19:05.304Z,8.41
2023-12-13T04:21:32.841Z,8.43
2023-12-13T04:24:01.460Z,8.45
2023-12-13T04:26:29.035Z,8.49
2023-12-13T04:28:55.751Z,8.52
2023-12-13T04:31:23.333Z,8.59
2023-12-13T04:33:50.825Z,8.61
2023-12-13T04:36:18.396Z,8.63
2023-12-13T04:38:44.908Z,8.65
2023-12-13T04:41:11.578Z,8.65
2023-12-13T04:43:38.239Z,8.69
2023-12-13T04:46:05.758Z,8.73
2023-12-13T04:48:33.476Z,8.76
2023-12-13T04:51:00.965Z,8.75
2023-12-13T04:53:27.851Z,8.71
2023-12-13T04:55:54.435Z,8.66
2023-12-13T04:58:21.033Z,8.59
2023-12-13T05:00:48.028Z,8.54
2023-12-13T05:03:14.597Z,8.46
2023-12-13T05:05:41.509Z,8.29
2023-12-13T05:08:09.115Z,8.08
2023-12-13T05:10:36.735Z,8.06
2023-12-13T05:13:04.257Z,8.01
2023-12-13T05:15:31.847Z,8.00
2023-12-13T05:17:58.493Z,8.00
2023-12-13T05:20:26.081Z,8.03
2023-12-13T05:22:53.693Z,8.01
2023-12-13T05:25:20.246Z,7.96
2023-12-13T05:27:46.764Z,7.81
2023-12-13T05:30:13.321Z,7.80
2023-12-13T05:32:41.989Z,7.83
2023-12-13T05:35:08.908Z,7.66
2023-12-13T05:37:35.790Z,7.59
2023-12-13T05:40:02.646Z,7.43
2023-12-13T05:42:29.363Z,7.34
2023-12-13T05:44:55.956Z,7.30
2023-12-13T05:47:22.548Z,7.28
2023-12-13T05:49:49.152Z,7.24
2023-12-13T05:52:15.664Z,7.17
2023-12-13T05:54:42.195Z,7.05
2023-12-13T05:57:08.901Z,7.00
2023-12-13T05:59:36.516Z,7.04
2023-12-13T06:02:03.147Z,7.08
2023-12-13T06:04:30.043Z,7.00
2023-12-13T06:06:57.302Z,6.92
2023-12-13T06:09:24.856Z,6.94
2023-12-13T06:11:51.342Z,6.92
2023-12-13T06:14:17.813Z,6.91
2023-12-13T06:16:44.558Z,6.92
2023-12-13T06:19:11.101Z,6.96
2023-12-13T06:21:37.635Z,7.02
2023-12-13T06:24:04.388Z,7.06
2023-12-13T06:26:30.967Z,7.10
2023-12-13T06:28:59.599Z,7.11
2023-12-13T06:31:26.144Z,7.14
2023-12-13T06:33:52.658Z,7.15
2023-12-13T06:36:19.246Z,7.19
2023-12-13T06:38:45.753Z,7.21
2023-12-13T06:41:12.496Z,7.25
2023-12-13T06:43:39.125Z,7.29
2023-12-13T06:46:05.672Z,7.30
2023-12-13T06:48:32.226Z,7.30
2023-12-13T06:50:58.785Z,7.34
2023-12-13T06:53:25.350Z,7.35
2023-12-13T06:55:52.070Z,7.36
2023-12-13T06:58:19.694Z,7.38
2023-12-13T07:00:46.225Z,7.41
2023-12-13T07:03:12.800Z,7.42
2023-12-13T07:05:39.495Z,7.44
2023-12-13T07:08:06.058Z,7.46
2023-12-13T07:10:33.833Z,7.48
2023-12-13T07:13:01.208Z,7.48
2023-12-13T07:15:27.821Z,7.47
2023-12-13T07:17:54.345Z,7.49
2023-12-13T07:20:20.852Z,7.49
2023-12-13T07:22:48.570Z,7.49
2023-12-13T07:25:16.180Z,7.48
2023-12-13T07:27:43.749Z,7.51
2023-12-13T07:30:11.344Z,7.36
2023-12-13T07:32:39.261Z,7.25
2023-12-13T07:35:06.606Z,7.30
2023-12-13T07:37:34.168Z,7.40
2023-12-13T07:40:01.703Z,7.48
2023-12-13T07:42:29.304Z,7.55
2023-12-13T07:44:55.881Z,7.60
2023-12-13T07:47:22.393Z,7.65
2023-12-13T07:49:49.188Z,7.69
2023-12-13T07:52:16.718Z,7.75
2023-12-13T07:54:44.248Z,7.79
2023-12-13T07:57:11.850Z,7.83
2023-12-13T07:59:39.439Z,7.85
2023-12-13T08:02:06.024Z,7.87
2023-12-13T08:04:33.650Z,7.89
2023-12-13T08:07:00.575Z,7.96
2023-12-13T08:09:27.080Z,8.00
2023-12-13T08:11:53.570Z,8.01
2023-12-13T08:14:21.056Z,8.01
2023-12-13T08:16:48.607Z,8.00
2023-12-13T08:19:16.282Z,7.98
2023-12-13T08:21:43.763Z,7.95
2023-12-13T08:24:10.370Z,7.78
2023-12-13T08:26:36.928Z,7.65
2023-12-13T08:29:07.080Z,7.62
2023-12-13T08:31:35.470Z,7.59
2023-12-13T08:34:02.941Z,7.47
2023-12-13T08:36:30.346Z,7.25
2023-12-13T08:38:57.266Z,7.01
2023-12-13T08:41:24.509Z,6.85
2023-12-13T08:43:51.145Z,6.69
2023-12-13T08:46:18.763Z,6.37
2023-12-13T08:48:46.439Z,6.23
2023-12-13T08:51:13.862Z,6.21
2023-12-13T08:53:42.454Z,6.26
2023-12-13T08:56:10.059Z,6.34
2023-12-13T08:58:37.690Z,6.37
2023-12-13T09:01:05.282Z,6.39
2023-12-13T09:03:32.213Z,6.41
2023-12-13T09:05:59.427Z,6.43
2023-12-13T09:08:27.041Z,6.50
2023-12-13T09:10:54.001Z,6.53
2023-12-13T09:13:20.599Z,6.57
2023-12-13T09:15:47.159Z,6.64
2023-12-13T09:18:14.452Z,6.72
2023-12-13T09:20:42.255Z,6.72
2023-12-13T09:23:09.557Z,6.75
2023-12-13T09:25:37.169Z,6.82
2023-12-13T09:28:04.743Z,6.91
2023-12-13T09:30:31.409Z,6.99
2023-12-13T09:32:58.987Z,7.07
2023-12-13T09:35:26.580Z,7.12
2023-12-13T09:37:54.129Z,7.17
2023-12-13T09:40:21.734Z,7.23
2023-12-13T09:42:49.406Z,7.25
2023-12-13T09:45:16.862Z,7.28
2023-12-13T09:47:43.439Z,7.34
2023-12-13T09:50:10.069Z,7.36
2023-12-13T09:52:38.044Z,7.47
2023-12-13T09:55:06.214Z,7.57
2023-12-13T09:57:33.826Z,7.67
2023-12-13T10:00:00.415Z,7.77
2023-12-13T10:02:27.039Z,7.85
2023-12-13T10:04:54.662Z,8.01
2023-12-13T10:07:22.435Z,8.23
2023-12-13T10:09:49.830Z,8.47
2023-12-13T10:12:16.331Z,8.69
2023-12-13T10:14:43.989Z,8.86
2023-12-13T10:17:17.227Z,8.88
2023-12-13T10:19:47.301Z,8.87
2023-12-13T10:22:16.241Z,8.86
2023-12-13T10:24:43.423Z,8.91
2023-12-13T10:27:09.933Z,8.96
2023-12-13T10:29:36.474Z,9.03
2023-12-13T10:32:03.022Z,9.09
2023-12-13T10:34:29.585Z,9.08
2023-12-13T10:36:56.398Z,9.04
2023-12-13T10:39:23.978Z,9.06
2023-12-13T10:41:50.490Z,9.09
2023-12-13T10:44:17.065Z,9.09
2023-12-13T10:46:43.661Z,9.14
2023-12-13T10:49:10.180Z,9.22
2023-12-13T10:51:36.681Z,9.26
2023-12-13T10:54:03.542Z,9.24
2023-12-13T10:56:30.145Z,9.20
2023-12-13T10:58:56.838Z,9.19
2023-12-13T11:01:24.509Z,9.18
2023-12-13T11:03:51.973Z,9.15
2023-12-13T11:06:18.632Z,9.16
2023-12-13T11:08:46.143Z,9.25
2023-12-13T11:11:14.749Z,9.32
2023-12-13T11:13:42.358Z,9.32
2023-12-13T11:16:09.937Z,9.18
2023-12-13T11:18:37.542Z,9.16
2023-12-13T11:21:05.132Z,9.12
2023-12-13T11:23:32.838Z,9.07
2023-12-13T11:26:00.454Z,9.04
2023-12-13T11:28:27.011Z,8.89
2023-12-13T11:30:54.591Z,8.47
2023-12-13T11:33:23.435Z,8.33
2023-12-13T11:35:50.776Z,8.13
2023-12-13T11:38:19.717Z,7.85
2023-12-13T11:40:47.039Z,7.73
2023-12-13T11:43:15.918Z,7.64
2023-12-13T11:45:43.154Z,7.62
2023-12-13T11:48:10.805Z,7.62
2023-12-13T11:50:37.464Z,7.61
2023-12-13T11:53:04.019Z,7.57
2023-12-13T11:55:31.534Z,7.48
2023-12-13T11:57:59.117Z,7.33
2023-12-13T12:00:26.717Z,7.22
2023-12-13T12:02:55.378Z,7.15
2023-12-13T12:05:23.025Z,7.10
2023-12-13T12:07:50.650Z,7.04
2023-12-13T12:10:18.288Z,6.76
2023-12-13T12:12:45.880Z,6.61
2023-12-13T12:15:12.611Z,6.42
2023-12-13T12:17:40.379Z,6.31
2023-12-13T12:20:08.764Z,6.18
2023-12-13T12:22:35.615Z,6.12
2023-12-13T12:25:02.261Z,6.10
2023-12-13T12:27:28.904Z,6.00
2023-12-13T12:29:57.131Z,5.88
2023-12-13T12:32:24.874Z,6.00
2023-12-13T12:34:53.333Z,6.02
2023-12-13T12:37:20.567Z,6.09
2023-12-13T12:39:47.504Z,6.08
2023-12-13T12:42:15.147Z,6.06
2023-12-13T12:44:42.753Z,5.96
2023-12-13T12:47:10.418Z,6.00
2023-12-13T12:49:37.040Z,5.96
2023-12-13T12:52:03.573Z,6.07
2023-12-13T12:54:30.096Z,6.20
2023-12-13T12:56:56.580Z,6.32
2023-12-13T12:59:23.675Z,6.45
2023-12-13T13:01:50.977Z,6.49
2023-12-13T13:04:18.502Z,6.53
2023-12-13T13:06:46.042Z,6.47
2023-12-13T13:09:12.633Z,6.44
2023-12-13T13:11:39.660Z,6.46
2023-12-13T13:14:08.226Z,6.56
2023-12-13T13:16:35.126Z,6.74
2023-12-13T13:19:03.899Z,6.82
2023-12-13T13:21:31.552Z,6.91
2023-12-13T13:23:59.154Z,7.13
2023-12-13T13:26:25.846Z,7.27
2023-12-13T13:28:53.375Z,7.29
2023-12-13T13:31:20.969Z,7.34
2023-12-13T13:33:47.610Z,7.33
2023-12-13T13:36:14.188Z,7.31
2023-12-13T13:38:40.670Z,7.30
2023-12-13T13:41:07.185Z,7.22
2023-12-13T13:43:33.954Z,7.15
2023-12-13T13:46:01.485Z,7.11
2023-12-13T13:48:28.124Z,7.05
2023-12-13T13:50:55.688Z,6.89
2023-12-13T13:53:22.237Z,6.88
2023-12-13T13:55:48.822Z,6.88
2023-12-13T13:58:15.404Z,6.88
2023-12-13T14:00:41.926Z,6.93
2023-12-13T14:03:08.687Z,6.95
2023-12-13T14:05:37.314Z,7.01
2023-12-13T14:08:04.850Z,7.01
2023-12-13T14:10:32.443Z,6.97
2023-12-13T14:12:59.021Z,6.97
2023-12-13T14:15:26.687Z,7.01
2023-12-13T14:17:54.277Z,7.04
2023-12-13T14:20:23.293Z,6.98
2023-12-13T14:22:50.433Z,6.98
2023-12-13T14:25:17.964Z,6.99
2023-12-13T14:27:46.562Z,6.96
2023-12-13T14:30:14.237Z,6.95
2023-12-13T14:32:41.771Z,6.97
2023-12-13T14:35:09.435Z,6.90
2023-12-13T14:37:37.085Z,6.90
2023-12-13T14:40:04.558Z,6.86
2023-12-13T14:42:31.163Z,6.76
2023-12-13T14:44:57.720Z,6.73
2023-12-13T14:47:24.238Z,6.73
2023-12-13T14:49:50.824Z,6.70
2023-12-13T14:52:17.508Z,6.60
2023-12-13T14:54:45.106Z,6.56
2023-12-13T14:57:12.689Z,6.50
2023-12-13T14:59:39.275Z,6.46
2023-12-13T15:02:05.897Z,6.38
2023-12-13T15:04:33.489Z,6.36
2023-12-13T15:07:03.469Z,6.34
2023-12-13T15:09:31.678Z,6.31
2023-12-13T15:11:59.242Z,6.33
2023-12-13T15:14:25.796Z,6.30
2023-12-13T15:16:52.350Z,6.33
2023-12-13T15:19:18.996Z,6.36
2023-12-13T15:21:45.494Z,6.39
2023-12-13T15:24:11.987Z,6.42
2023-12-13T15:26:38.718Z,6.51
2023-12-13T15:29:05.568Z,6.50
2023-12-13T15:31:34.673Z,6.56
2023-12-13T15:34:01.660Z,6.58
2023-12-13T15:36:29.135Z,6.62
2023-12-13T15:38:55.768Z,6.69
2023-12-13T15:41:23.360Z,6.72
2023-12-13T15:43:51.043Z,6.77
2023-12-13T15:46:18.591Z,6.78
2023-12-13T15:48:46.147Z,6.79
2023-12-13T15:51:13.701Z,6.83
2023-12-13T15:53:40.222Z,6.82
2023-12-13T15:56:06.864Z,6.81
2023-12-13T15:58:34.527Z,6.74
2023-12-13T16:01:02.094Z,6.70
2023-12-13T16:03:28.696Z,6.62
2023-12-13T16:05:57.083Z,6.57
2023-12-13T16:08:24.482Z,6.49
2023-12-13T16:10:51.102Z,6.44
2023-12-13T16:13:18.065Z,6.35
2023-12-13T16:15:46.657Z,6.21
2023-12-13T16:18:13.318Z,6.10
2023-12-13T16:20:40.836Z,6.04
2023-12-13T16:23:07.460Z,6.01
2023-12-13T16:25:35.045Z,5.90
2023-12-13T16:28:01.860Z,5.72
2023-12-13T16:30:28.430Z,5.62
2023-12-13T16:32:55.005Z,5.64
2023-12-13T16:35:21.551Z,5.64
2023-12-13T16:37:48.094Z,5.69
2023-12-13T16:40:15.565Z,5.69
2023-12-13T16:42:42.172Z,5.72
2023-12-13T16:45:08.672Z,5.78
2023-12-13T16:47:35.210Z,5.76
2023-12-13T16:50:01.979Z,5.71
2023-12-13T16:52:29.548Z,5.74
2023-12-13T16:54:56.063Z,5.74
2023-12-13T16:57:22.576Z,5.79
2023-12-13T16:59:49.065Z,5.81
2023-12-13T17:02:15.916Z,5.80
2023-12-13T17:04:43.158Z,5.81
2023-12-13T17:07:11.041Z,5.64
2023-12-13T17:09:38.639Z,5.55
2023-12-13T17:12:06.246Z,5.52
2023-12-13T17:14:33.800Z,5.55
2023-12-13T17:17:01.496Z,5.58
2023-12-13T17:19:29.159Z,5.60
2023-12-13T17:21:56.668Z,5.64
2023-12-13T17:24:24.181Z,5.66
2023-12-13T17:26:51.132Z,5.69
2023-12-13T17:29:26.455Z,5.72
2023-12-13T17:32:01.172Z,5.70
2023-12-13T17:34:28.673Z,5.70
2023-12-13T17:36:56.234Z,5.73
2023-12-13T17:39:23.816Z,5.74
2023-12-13T17:41:50.418Z,5.75
2023-12-13T17:44:19.779Z,5.76
2023-12-13T17:46:48.641Z,5.74
2023-12-13T17:49:16.327Z,5.69
2023-12-13T17:51:43.797Z,5.71
2023-12-13T17:54:10.384Z,5.63
2023-12-13T17:56:37.989Z,5.62
2023-12-13T17:59:05.638Z,5.68
2023-12-13T18:01:33.181Z,5.71
2023-12-13T18:04:01.793Z,5.72
2023-12-13T18:06:29.385Z,5.71
2023-12-13T18:08:55.897Z,5.75
2023-12-13T18:11:22.530Z,5.79
2023-12-13T18:13:49.157Z,5.84
2023-12-13T18:16:16.744Z,5.89
2023-12-13T18:18:44.414Z,5.88
2023-12-13T18:21:11.906Z,5.91
2023-12-13T18:23:39.537Z,5.92
2023-12-13T18:26:07.175Z,5.92
2023-12-13T18:28:35.728Z,5.91
2023-12-13T18:31:02.465Z,5.91
2023-12-13T18:33:29.143Z,5.94
2023-12-13T18:35:56.455Z,5.91
2023-12-13T18:38:24.050Z,5.89
2023-12-13T18:40:51.711Z,5.89
2023-12-13T18:43:19.237Z,5.89
2023-12-13T18:45:45.831Z,5.86
2023-12-13T18:48:12.484Z,5.84
2023-12-13T18:50:40.027Z,5.80
2023-12-13T18:53:06.691Z,5.79
2023-12-13T18:55:34.281Z,5.77
2023-12-13T18:58:01.893Z,5.75
2023-12-13T19:00:28.605Z,5.73
2023-12-13T19:02:57.230Z,5.72
2023-12-13T19:05:23.885Z,5.68
2023-12-13T19:07:52.440Z,5.75
2023-12-13T19:10:20.090Z,5.77
2023-12-13T19:12:47.619Z,5.79
2023-12-13T19:15:15.192Z,5.80
2023-12-13T19:17:44.357Z,5.81
2023-12-13T19:20:12.471Z,5.79
2023-12-13T19:22:39.993Z,5.80
2023-12-13T19:25:07.556Z,5.78
2023-12-13T19:27:35.498Z,5.75
2023-12-13T19:30:02.743Z,5.72
2023-12-13T19:32:29.388Z,5.67
2023-12-13T19:34:56.464Z,5.64
2023-12-13T19:37:23.066Z,5.60
2023-12-13T19:39:49.586Z,5.61
2023-12-13T19:42:16.732Z,5.58
2023-12-13T19:44:44.345Z,5.63
2023-12-13T19:47:10.952Z,5.67
2023-12-13T19:49:38.554Z,5.70
2023-12-13T19:52:06.141Z,5.76
2023-12-13T19:54:33.737Z,5.79
2023-12-13T19:57:00.327Z,5.88
2023-12-13T19:59:26.959Z,5.94
2023-12-13T20:01:54.609Z,5.99
2023-12-13T20:04:22.136Z,6.05
2023-12-13T20:06:48.636Z,6.10
2023-12-13T20:09:15.146Z,6.14
2023-12-13T20:11:41.960Z,6.15
2023-12-13T20:14:09.568Z,6.19
2023-12-13T20:16:37.199Z,6.21
2023-12-13T20:19:04.858Z,6.21
2023-12-13T20:21:32.411Z,6.21
2023-12-13T20:24:01.035Z,6.21
2023-12-13T20:26:28.512Z,6.22
2023-12-13T20:28:55.093Z,6.25
2023-12-13T20:31:22.698Z,6.21
2023-12-13T20:33:49.300Z,6.21
2023-12-13T20:36:15.856Z,6.13
2023-12-13T20:38:42.392Z,6.09
2023-12-13T20:41:10.234Z,6.05
2023-12-13T20:43:37.217Z,6.00
2023-12-13T20:46:03.893Z,6.01
2023-12-13T20:48:32.933Z,6.05
2023-12-13T20:51:03.403Z,6.07
2023-12-13T20:53:29.895Z,6.09
2023-12-13T20:55:56.961Z,6.14
2023-12-13T20:58:24.622Z,6.20
2023-12-13T21:00:52.283Z,6.19
2023-12-13T21:03:19.228Z,6.24
2023-12-13T21:05:45.788Z,6.28
2023-12-13T21:08:12.332Z,6.30
2023-12-13T21:10:40.643Z,6.31
2023-12-13T21:13:08.260Z,6.34
2023-12-13T21:15:35.830Z,6.40
2023-12-13T21:18:03.585Z,6.43
2023-12-13T21:20:32.118Z,6.43
2023-12-13T21:23:02.100Z,6.44
2023-12-13T21:25:29.378Z,6.43
2023-12-13T21:27:56.838Z,6.39
2023-12-13T21:30:24.518Z,6.35
2023-12-13T21:32:51.194Z,6.23
2023-12-13T21:35:17.869Z,5.97
2023-12-13T21:37:44.494Z,5.88
2023-12-13T21:40:11.014Z,5.69
2023-12-13T21:42:38.504Z,5.55
2023-12-13T21:45:05.024Z,5.55
2023-12-13T21:47:31.705Z,5.59
2023-12-13T21:49:58.771Z,5.64
2023-12-13T21:52:25.285Z,5.68
2023-12-13T21:54:52.004Z,5.70
2023-12-13T21:57:19.012Z,5.74
2023-12-13T21:59:46.723Z,5.78
2023-12-13T22:02:14.335Z,5.79
2023-12-13T22:04:41.927Z,5.78
2023-12-13T22:07:08.498Z,5.80
2023-12-13T22:09:34.994Z,5.81
2023-12-13T22:12:01.522Z,5.68
2023-12-13T22:14:28.008Z,5.62
2023-12-13T22:16:54.545Z,5.66
2023-12-13T22:19:21.094Z,5.73
2023-12-13T22:21:47.998Z,5.78
2023-12-13T22:24:15.632Z,5.83
2023-12-13T22:26:42.579Z,5.86
2023-12-13T22:29:09.104Z,5.86
2023-12-13T22:31:35.717Z,5.86
2023-12-13T22:34:02.337Z,5.80
2023-12-13T22:36:28.920Z,5.78
2023-12-13T22:38:55.447Z,5.77
2023-12-13T22:41:23.919Z,5.73
2023-12-13T22:43:52.616Z,5.70
2023-12-13T22:46:20.095Z,5.64
2023-12-13T22:48:46.693Z,5.65
2023-12-13T22:51:14.310Z,5.65
2023-12-13T22:53:41.179Z,5.66
2023-12-13T22:56:07.706Z,5.68
2023-12-13T22:58:34.259Z,5.68
2023-12-13T23:01:01.924Z,5.69
2023-12-13T23:03:30.866Z,5.69
2023-12-13T23:05:58.113Z,5.70
2023-12-13T23:08:25.662Z,5.73
2023-12-13T23:10:53.281Z,5.72
2023-12-13T23:13:20.874Z,5.73
2023-12-13T23:15:48.425Z,5.74
2023-12-13T23:18:15.048Z,5.75
2023-12-13T23:20:42.638Z,5.79
2023-12-13T23:23:09.321Z,5.80
2023-12-13T23:25:36.838Z,5.81
2023-12-13T23:28:04.439Z,5.83
2023-12-13T23:30:32.082Z,5.86
2023-12-13T23:32:59.646Z,5.88
2023-12-13T23:35:27.338Z,5.88
2023-12-13T23:37:54.829Z,5.82
2023-12-13T23:40:22.396Z,5.78
2023-12-13T23:42:48.973Z,5.76
2023-12-13T23:45:15.572Z,5.73
2023-12-13T23:47:42.217Z,5.72
2023-12-13T23:50:09.989Z,5.77
2023-12-13T23:52:37.655Z,5.82
2023-12-13T23:55:04.985Z,5.91
2023-12-13T23:57:32.547Z,5.94
